Погода Южно-Сухокумскна 2 недели

Республика Дагестан, Россия

21 мая-03 июня
  • 21мая
    Сегодня
    +11°
    +27°
    Ясно и безоблачно
    ВремяПогодаТемператураВлажностьДавлениеВетер, м/сВероятность осадков
    00:00Ясно и безоблачно+15°C70 %763 мм2.4 м/с2 %
    03:00Ясно и безоблачно+14°C70 %763 мм1.3 м/с2 %
    06:00Ясно и безоблачно+14°C74 %764 мм0.9 м/с2 %
    09:00Ясно и безоблачно+22°C43 %764 мм2.3 м/с2 %
    12:00Ясно и безоблачно+25°C26 %764 мм2.2 м/с2 %
    15:00Ясно и безоблачно+26°C21 %763 мм2.6 м/с2 %
    18:00Ясно и безоблачно+24°C26 %763 мм1.8 м/с2 %
    21:00Ясно и безоблачно+18°C42 %764 мм3.7 м/с2 %
  • 22мая
    Среда
    +11°
    +26°
    Практически безоблачно
    ВремяПогодаТемператураВлажностьДавлениеВетер, м/сВероятность осадков
    00:00Ясно и безоблачно+14°C60 %764 мм1.9 м/с2 %
    03:00Ясно и безоблачно+12°C74 %764 мм2.0 м/с2 %
    06:00Облачно с прояснениями+14°C71 %764 мм3.1 м/с2 %
    09:00Облачно с прояснениями+22°C42 %764 мм4.7 м/с2 %
    12:00Облачно с прояснениями+25°C29 %763 мм5.0 м/с2 %
    15:00Практически безоблачно+25°C33 %762 мм5.9 м/с2 %
    18:00Ясно и безоблачно+21°C41 %762 мм5.3 м/с2 %
    21:00Ясно и безоблачно+16°C68 %762 мм3.4 м/с2 %
  • 23мая
    Четверг
    +11°
    +28°
    Ясно и безоблачно
    ВремяПогодаТемператураВлажностьДавлениеВетер, м/сВероятность осадков
    00:00Ясно и безоблачно+13°C84 %762 мм3.2 м/с2 %
    03:00Ясно и безоблачно+12°C90 %761 мм2.6 м/с2 %
    06:00Ясно и безоблачно+13°C79 %761 мм2.6 м/с2 %
    09:00Ясно и безоблачно+22°C46 %761 мм3.7 м/с2 %
    12:00Ясно и безоблачно+26°C27 %760 мм4.7 м/с2 %
    15:00Ясно и безоблачно+27°C24 %760 мм5.2 м/с2 %
    18:00Ясно и безоблачно+24°C37 %760 мм4.9 м/с2 %
    21:00Ясно и безоблачно+18°C62 %761 мм3.6 м/с2 %
  • 24мая
    Пятница
    +12°
    +28°
    Небольшая облачность и лёгкий дождик
    ВремяПогодаТемператураВлажностьДавлениеВетер, м/сВероятность осадков
    00:00Ясно и безоблачно+15°C83 %761 мм2.5 м/с2 %
    03:00Ясно и безоблачно+12°C92 %761 мм2.2 м/с2 %
    06:00Ясно и безоблачно+15°C88 %762 мм2.7 м/с2 %
    09:00Ясно и безоблачно+23°C47 %762 мм4.2 м/с2 %
    12:00Практически безоблачно+27°C32 %762 мм5.1 м/с34 %
    15:00Небольшая облачность и лёгкий дождик+22°C58 %763 мм6.1 м/с58 %
    18:00Ясно и безоблачно+21°C58 %764 мм5.8 м/с36 %
    21:00Ясно и безоблачно+16°C69 %766 мм4.9 м/с2 %
  • 25мая
    Суббота
    +14°
    +22°
    Облачно с прояснениями
    ВремяПогодаТемператураВлажностьДавлениеВетер, м/сВероятность осадков
    00:00Облачно с прояснениями+15°C58 %767 мм4.2 м/с2 %
    03:00Небольшая облачность+13°C43 %767 мм4.8 м/с2 %
    06:00Облачно с прояснениями+14°C51 %768 мм4.8 м/с2 %
    09:00Пасмурно, сплошная облачность+20°C42 %768 мм8.4 м/с2 %
    12:00Облачно с прояснениями+21°C39 %768 мм8.1 м/с2 %
    15:00Облачно с прояснениями+21°C39 %768 мм8.3 м/с2 %
    18:00Облачно с прояснениями+17°C48 %768 мм7.8 м/с2 %
    21:00Облачно с прояснениями+15°C61 %768 мм5.8 м/с2 %
Мы используем cookies
Соглашаюсь